Grass Valley, Oregon
Current Conditions -  °F | °C
As of 4:53 PM on Monday 26 Jan 2015 (Local Time) from KDLS Reporting Station
Overcast Overcast  
Wind Chill: 40°   Ceiling: 800
Heat Index: 43°   Visibility: 10mi
Dew Point: 38°   Wind: 5mph
Humidity: 82%   Direction: 80°E
Pressure: 30.04"   Gusts: NA
Location:  45.36°N, 120.79°W
Report Text: KDLS 270053Z AUTO 08004KT 10SM OVC008 06/03 A3004 RMK AO2 SLP175 T00610033
Loading
Personal Weather Stations






























Interactive Weather Map New forecast layout! Learn more

10-Day Weather Forecast

Advertisements
Track Severe Weather on mobile